Santo Antonio Da Barra, Brazil
Current Conditions -  °F | °C
As of 1:00 PM on Monday 24 Nov 2014 (Local Time) from SBGO Reporting Station
Broken Clouds Broken Clouds  
Wind Chill: 79°   Ceiling: 10000
Heat Index: 81°   Visibility: 6mi
Dew Point: 66°   Wind: 5mph
Humidity: 65%   Direction: 330°NNW
Pressure: 30.03"   Gusts: NA
Location:  17.57°S, 50.63°W
Report Text: SBGO 241500Z 33004KT 9999 FEW025 BKN100 26/19 Q1017
Loading
Personal Weather Stations






























Interactive Weather Map New forecast layout! Learn more

10-Day Weather Forecast

Advertisements
Track Severe Weather on mobile